sensor_id;sensor_type;location;lat;lon;timestamp;P1;durP1;ratioP1;P2;durP2;ratioP2
78614;SDS011;67937;52.488;20.952;2023-04-09T00:01:17;8.20;;;4.60;;
78614;SDS011;67937;52.488;20.952;2023-04-09T00:03:45;7.60;;;4.80;;
78614;SDS011;67937;52.488;20.952;2023-04-09T00:06:13;5.40;;;4.20;;
78614;SDS011;67937;52.488;20.952;2023-04-09T00:08:41;5.10;;;3.90;;
78614;SDS011;67937;52.488;20.952;2023-04-09T00:11:09;6.00;;;4.10;;
78614;SDS011;67937;52.488;20.952;2023-04-09T00:13:37;6.10;;;4.80;;
78614;SDS011;67937;52.488;20.952;2023-04-09T00:16:06;6.90;;;4.20;;
78614;SDS011;67937;52.488;20.952;2023-04-09T00:18:34;5.80;;;3.80;;
78614;SDS011;67937;52.488;20.952;2023-04-09T00:21:03;8.80;;;3.80;;
78614;SDS011;67937;52.488;20.952;2023-04-09T00:23:32;6.70;;;3.90;;
78614;SDS011;67937;52.488;20.952;2023-04-09T00:26:00;6.10;;;4.20;;
78614;SDS011;67937;52.488;20.952;2023-04-09T00:28:29;7.50;;;5.10;;
78614;SDS011;67937;52.488;20.952;2023-04-09T00:30:57;8.70;;;4.20;;
78614;SDS011;67937;52.488;20.952;2023-04-09T00:33:25;7.00;;;4.80;;
78614;SDS011;67937;52.488;20.952;2023-04-09T00:35:53;7.90;;;5.00;;
78614;SDS011;67937;52.488;20.952;2023-04-09T00:38:21;6.70;;;4.90;;
78614;SDS011;67937;52.488;20.952;2023-04-09T00:40:49;8.60;;;5.50;;
78614;SDS011;67937;52.488;20.952;2023-04-09T00:43:17;10.80;;;5.70;;
78614;SDS011;67937;52.488;20.952;2023-04-09T00:45:45;7.80;;;4.90;;
78614;SDS011;67937;52.488;20.952;2023-04-09T00:48:14;8.20;;;5.10;;
78614;SDS011;67937;52.488;20.952;2023-04-09T00:50:43;12.10;;;6.40;;
78614;SDS011;67937;52.488;20.952;2023-04-09T00:53:11;9.80;;;6.30;;
78614;SDS011;67937;52.488;20.952;2023-04-09T00:55:41;11.60;;;8.00;;
78614;SDS011;67937;52.488;20.952;2023-04-09T00:58:09;16.10;;;8.50;;
78614;SDS011;67937;52.488;20.952;2023-04-09T01:00:37;12.80;;;7.70;;
78614;SDS011;67937;52.488;20.952;2023-04-09T01:03:06;11.10;;;6.00;;
78614;SDS011;67937;52.488;20.952;2023-04-09T01:05:40;7.20;;;5.50;;
78614;SDS011;67937;52.488;20.952;2023-04-09T01:08:31;12.30;;;6.80;;
78614;SDS011;67937;52.488;20.952;2023-04-09T01:11:12;11.70;;;6.80;;
78614;SDS011;67937;52.488;20.952;2023-04-09T01:16:41;8.40;;;5.70;;
78614;SDS011;67937;52.488;20.952;2023-04-09T01:19:26;9.80;;;7.00;;
78614;SDS011;67937;52.488;20.952;2023-04-09T01:22:20;13.20;;;6.00;;
78614;SDS011;67937;52.488;20.952;2023-04-09T01:25:03;9.70;;;5.80;;
78614;SDS011;67937;52.488;20.952;2023-04-09T01:30:47;8.80;;;5.60;;
78614;SDS011;67937;52.488;20.952;2023-04-09T01:33:16;9.80;;;6.00;;
78614;SDS011;67937;52.488;20.952;2023-04-09T01:35:47;10.80;;;6.20;;
78614;SDS011;67937;52.488;20.952;2023-04-09T01:38:17;9.40;;;5.80;;
78614;SDS011;67937;52.488;20.952;2023-04-09T01:40:47;7.70;;;4.90;;
78614;SDS011;67937;52.488;20.952;2023-04-09T01:43:17;9.00;;;5.00;;
78614;SDS011;67937;52.488;20.952;2023-04-09T01:45:45;8.80;;;5.90;;
78614;SDS011;67937;52.488;20.952;2023-04-09T01:48:14;10.80;;;6.30;;
78614;SDS011;67937;52.488;20.952;2023-04-09T01:50:43;11.40;;;6.50;;
78614;SDS011;67937;52.488;20.952;2023-04-09T01:53:12;9.40;;;6.00;;
78614;SDS011;67937;52.488;20.952;2023-04-09T01:55:40;8.20;;;4.90;;
78614;SDS011;67937;52.488;20.952;2023-04-09T01:58:08;8.70;;;4.50;;
78614;SDS011;67937;52.488;20.952;2023-04-09T02:00:41;9.70;;;6.00;;
78614;SDS011;67937;52.488;20.952;2023-04-09T02:03:24;10.10;;;6.20;;
78614;SDS011;67937;52.488;20.952;2023-04-09T02:06:03;11.10;;;5.40;;
78614;SDS011;67937;52.488;20.952;2023-04-09T02:08:40;9.50;;;5.80;;
78614;SDS011;67937;52.488;20.952;2023-04-09T02:11:12;9.60;;;5.20;;
78614;SDS011;67937;52.488;20.952;2023-04-09T02:13:42;10.90;;;6.10;;
78614;SDS011;67937;52.488;20.952;2023-04-09T02:16:12;11.50;;;6.30;;
78614;SDS011;67937;52.488;20.952;2023-04-09T02:18:42;10.40;;;6.90;;
78614;SDS011;67937;52.488;20.952;2023-04-09T02:21:10;13.80;;;6.00;;
78614;SDS011;67937;52.488;20.952;2023-04-09T02:23:39;8.90;;;5.40;;
78614;SDS011;67937;52.488;20.952;2023-04-09T02:26:07;10.50;;;5.70;;
78614;SDS011;67937;52.488;20.952;2023-04-09T02:28:35;9.30;;;6.30;;
78614;SDS011;67937;52.488;20.952;2023-04-09T02:31:03;11.00;;;6.40;;
78614;SDS011;67937;52.488;20.952;2023-04-09T02:33:31;10.30;;;5.40;;
78614;SDS011;67937;52.488;20.952;2023-04-09T02:36:00;9.80;;;5.40;;
78614;SDS011;67937;52.488;20.952;2023-04-09T02:38:28;9.20;;;5.50;;
78614;SDS011;67937;52.488;20.952;2023-04-09T02:40:57;8.90;;;5.60;;
78614;SDS011;67937;52.488;20.952;2023-04-09T02:43:25;8.30;;;5.30;;
78614;SDS011;67937;52.488;20.952;2023-04-09T02:45:53;9.70;;;5.00;;
78614;SDS011;67937;52.488;20.952;2023-04-09T02:48:21;7.40;;;5.20;;
78614;SDS011;67937;52.488;20.952;2023-04-09T02:50:49;8.70;;;5.70;;
78614;SDS011;67937;52.488;20.952;2023-04-09T02:53:17;9.80;;;5.70;;
78614;SDS011;67937;52.488;20.952;2023-04-09T02:55:46;9.10;;;5.60;;
78614;SDS011;67937;52.488;20.952;2023-04-09T02:58:14;9.30;;;5.50;;
78614;SDS011;67937;52.488;20.952;2023-04-09T03:00:42;8.50;;;4.80;;
78614;SDS011;67937;52.488;20.952;2023-04-09T03:03:10;8.30;;;5.40;;
78614;SDS011;67937;52.488;20.952;2023-04-09T03:05:38;6.70;;;4.70;;
78614;SDS011;67937;52.488;20.952;2023-04-09T03:08:06;8.30;;;5.10;;
78614;SDS011;67937;52.488;20.952;2023-04-09T03:10:35;7.40;;;4.90;;
78614;SDS011;67937;52.488;20.952;2023-04-09T03:13:03;7.10;;;5.40;;
78614;SDS011;67937;52.488;20.952;2023-04-09T03:15:31;9.40;;;5.10;;
78614;SDS011;67937;52.488;20.952;2023-04-09T03:17:59;8.40;;;5.30;;
78614;SDS011;67937;52.488;20.952;2023-04-09T03:20:27;9.40;;;5.80;;
78614;SDS011;67937;52.488;20.952;2023-04-09T03:22:55;7.30;;;5.20;;
78614;SDS011;67937;52.488;20.952;2023-04-09T03:25:23;6.80;;;4.50;;
78614;SDS011;67937;52.488;20.952;2023-04-09T03:27:51;8.70;;;5.20;;
78614;SDS011;67937;52.488;20.952;2023-04-09T03:30:19;8.20;;;5.00;;
78614;SDS011;67937;52.488;20.952;2023-04-09T03:32:47;7.00;;;5.20;;
78614;SDS011;67937;52.488;20.952;2023-04-09T03:35:15;7.90;;;5.50;;
78614;SDS011;67937;52.488;20.952;2023-04-09T03:37:43;8.40;;;4.70;;
78614;SDS011;67937;52.488;20.952;2023-04-09T03:40:11;9.20;;;4.90;;
78614;SDS011;67937;52.488;20.952;2023-04-09T03:42:43;8.10;;;5.00;;
78614;SDS011;67937;52.488;20.952;2023-04-09T03:45:11;6.70;;;4.70;;
78614;SDS011;67937;52.488;20.952;2023-04-09T03:47:39;8.40;;;5.70;;
78614;SDS011;67937;52.488;20.952;2023-04-09T03:50:07;8.60;;;4.70;;
78614;SDS011;67937;52.488;20.952;2023-04-09T03:52:36;8.80;;;5.10;;
78614;SDS011;67937;52.488;20.952;2023-04-09T03:55:04;7.90;;;5.40;;
78614;SDS011;67937;52.488;20.952;2023-04-09T03:57:32;8.10;;;5.20;;
78614;SDS011;67937;52.488;20.952;2023-04-09T04:00:00;8.70;;;5.80;;
78614;SDS011;67937;52.488;20.952;2023-04-09T04:02:29;6.90;;;4.80;;
78614;SDS011;67937;52.488;20.952;2023-04-09T04:04:59;6.30;;;4.60;;
78614;SDS011;67937;52.488;20.952;2023-04-09T04:07:27;6.20;;;4.50;;
78614;SDS011;67937;52.488;20.952;2023-04-09T04:09:55;8.20;;;5.50;;
78614;SDS011;67937;52.488;20.952;2023-04-09T04:12:23;8.70;;;4.90;;
78614;SDS011;67937;52.488;20.952;2023-04-09T04:14:51;6.50;;;4.40;;
78614;SDS011;67937;52.488;20.952;2023-04-09T04:17:19;7.50;;;4.70;;
78614;SDS011;67937;52.488;20.952;2023-04-09T04:19:47;7.00;;;4.80;;
78614;SDS011;67937;52.488;20.952;2023-04-09T04:22:15;7.60;;;5.20;;
78614;SDS011;67937;52.488;20.952;2023-04-09T04:24:43;7.70;;;4.80;;
78614;SDS011;67937;52.488;20.952;2023-04-09T04:27:11;6.30;;;5.10;;
78614;SDS011;67937;52.488;20.952;2023-04-09T04:29:39;10.00;;;5.10;;
78614;SDS011;67937;52.488;20.952;2023-04-09T04:32:07;9.10;;;5.80;;
78614;SDS011;67937;52.488;20.952;2023-04-09T04:34:35;10.10;;;5.30;;
78614;SDS011;67937;52.488;20.952;2023-04-09T04:37:03;9.00;;;5.40;;
78614;SDS011;67937;52.488;20.952;2023-04-09T04:39:31;6.80;;;4.50;;
78614;SDS011;67937;52.488;20.952;2023-04-09T04:41:59;7.40;;;4.20;;
78614;SDS011;67937;52.488;20.952;2023-04-09T04:44:27;6.30;;;4.10;;
78614;SDS011;67937;52.488;20.952;2023-04-09T04:46:55;5.10;;;4.10;;
78614;SDS011;67937;52.488;20.952;2023-04-09T04:49:23;6.20;;;3.90;;
78614;SDS011;67937;52.488;20.952;2023-04-09T04:51:51;7.70;;;4.60;;
78614;SDS011;67937;52.488;20.952;2023-04-09T04:54:19;6.10;;;4.60;;
78614;SDS011;67937;52.488;20.952;2023-04-09T04:56:47;6.40;;;4.50;;
78614;SDS011;67937;52.488;20.952;2023-04-09T04:59:15;8.40;;;5.10;;
78614;SDS011;67937;52.488;20.952;2023-04-09T05:01:43;6.40;;;4.80;;
78614;SDS011;67937;52.488;20.952;2023-04-09T05:04:11;7.10;;;4.70;;
78614;SDS011;67937;52.488;20.952;2023-04-09T05:06:39;8.50;;;5.30;;
78614;SDS011;67937;52.488;20.952;2023-04-09T05:09:07;7.90;;;5.70;;
78614;SDS011;67937;52.488;20.952;2023-04-09T05:11:35;9.00;;;5.80;;
78614;SDS011;67937;52.488;20.952;2023-04-09T05:14:03;9.90;;;6.00;;
78614;SDS011;67937;52.488;20.952;2023-04-09T05:16:32;9.60;;;5.30;;
78614;SDS011;67937;52.488;20.952;2023-04-09T05:19:00;10.90;;;5.90;;
78614;SDS011;67937;52.488;20.952;2023-04-09T05:21:28;8.60;;;5.50;;
78614;SDS011;67937;52.488;20.952;2023-04-09T05:23:57;8.60;;;6.20;;
78614;SDS011;67937;52.488;20.952;2023-04-09T05:26:25;10.60;;;6.20;;
78614;SDS011;67937;52.488;20.952;2023-04-09T05:28:53;10.20;;;6.00;;
78614;SDS011;67937;52.488;20.952;2023-04-09T05:31:21;10.40;;;6.70;;
78614;SDS011;67937;52.488;20.952;2023-04-09T05:33:49;9.00;;;6.40;;
78614;SDS011;67937;52.488;20.952;2023-04-09T05:36:18;10.60;;;6.40;;
78614;SDS011;67937;52.488;20.952;2023-04-09T05:38:46;12.20;;;6.90;;
78614;SDS011;67937;52.488;20.952;2023-04-09T05:41:14;11.30;;;6.30;;
78614;SDS011;67937;52.488;20.952;2023-04-09T05:43:42;9.20;;;5.70;;
78614;SDS011;67937;52.488;20.952;2023-04-09T05:46:10;10.10;;;6.40;;
78614;SDS011;67937;52.488;20.952;2023-04-09T05:48:38;8.40;;;5.30;;
78614;SDS011;67937;52.488;20.952;2023-04-09T05:51:06;11.70;;;6.70;;
78614;SDS011;67937;52.488;20.952;2023-04-09T05:53:35;9.80;;;6.70;;
78614;SDS011;67937;52.488;20.952;2023-04-09T05:56:11;11.70;;;6.30;;
78614;SDS011;67937;52.488;20.952;2023-04-09T05:58:40;10.30;;;6.50;;
78614;SDS011;67937;52.488;20.952;2023-04-09T06:01:09;9.20;;;6.40;;
78614;SDS011;67937;52.488;20.952;2023-04-09T06:03:37;11.20;;;7.10;;
78614;SDS011;67937;52.488;20.952;2023-04-09T06:06:05;12.80;;;6.70;;
78614;SDS011;67937;52.488;20.952;2023-04-09T06:08:33;13.20;;;7.40;;
78614;SDS011;67937;52.488;20.952;2023-04-09T06:11:01;10.20;;;7.10;;
78614;SDS011;67937;52.488;20.952;2023-04-09T06:13:29;14.20;;;8.90;;
78614;SDS011;67937;52.488;20.952;2023-04-09T06:15:57;13.60;;;8.90;;
78614;SDS011;67937;52.488;20.952;2023-04-09T06:18:26;7.70;;;5.90;;
78614;SDS011;67937;52.488;20.952;2023-04-09T06:21:00;11.30;;;6.50;;
78614;SDS011;67937;52.488;20.952;2023-04-09T06:23:33;10.50;;;6.70;;
78614;SDS011;67937;52.488;20.952;2023-04-09T06:26:02;9.70;;;6.00;;
78614;SDS011;67937;52.488;20.952;2023-04-09T06:28:31;10.90;;;6.60;;
78614;SDS011;67937;52.488;20.952;2023-04-09T06:30:59;8.50;;;5.90;;
78614;SDS011;67937;52.488;20.952;2023-04-09T06:33:27;10.60;;;7.00;;
78614;SDS011;67937;52.488;20.952;2023-04-09T06:35:55;10.10;;;6.50;;
78614;SDS011;67937;52.488;20.952;2023-04-09T06:38:23;11.80;;;7.50;;
78614;SDS011;67937;52.488;20.952;2023-04-09T06:40:51;8.90;;;6.30;;
78614;SDS011;67937;52.488;20.952;2023-04-09T06:43:19;10.20;;;6.40;;
78614;SDS011;67937;52.488;20.952;2023-04-09T06:45:47;12.50;;;7.90;;
78614;SDS011;67937;52.488;20.952;2023-04-09T06:48:15;9.80;;;6.60;;
78614;SDS011;67937;52.488;20.952;2023-04-09T06:50:43;10.30;;;6.90;;
78614;SDS011;67937;52.488;20.952;2023-04-09T06:53:13;14.50;;;8.80;;
78614;SDS011;67937;52.488;20.952;2023-04-09T06:55:41;14.10;;;8.30;;
78614;SDS011;67937;52.488;20.952;2023-04-09T06:58:09;12.30;;;8.00;;
78614;SDS011;67937;52.488;20.952;2023-04-09T07:00:37;13.30;;;7.50;;
78614;SDS011;67937;52.488;20.952;2023-04-09T07:03:06;11.70;;;7.70;;
78614;SDS011;67937;52.488;20.952;2023-04-09T07:05:34;11.80;;;8.00;;
78614;SDS011;67937;52.488;20.952;2023-04-09T07:08:02;10.40;;;7.10;;
78614;SDS011;67937;52.488;20.952;2023-04-09T07:10:30;16.60;;;8.60;;
78614;SDS011;67937;52.488;20.952;2023-04-09T07:12:58;10.90;;;7.60;;
78614;SDS011;67937;52.488;20.952;2023-04-09T07:15:27;12.70;;;8.20;;
78614;SDS011;67937;52.488;20.952;2023-04-09T07:17:55;13.20;;;8.20;;
78614;SDS011;67937;52.488;20.952;2023-04-09T07:20:23;13.30;;;8.70;;
78614;SDS011;67937;52.488;20.952;2023-04-09T07:22:51;12.40;;;7.80;;
78614;SDS011;67937;52.488;20.952;2023-04-09T07:25:19;11.80;;;7.80;;
78614;SDS011;67937;52.488;20.952;2023-04-09T07:27:48;12.70;;;8.00;;
78614;SDS011;67937;52.488;20.952;2023-04-09T07:30:16;12.20;;;7.40;;
78614;SDS011;67937;52.488;20.952;2023-04-09T07:32:44;11.80;;;7.30;;
78614;SDS011;67937;52.488;20.952;2023-04-09T07:35:13;10.90;;;7.40;;
78614;SDS011;67937;52.488;20.952;2023-04-09T07:37:41;10.20;;;6.50;;
78614;SDS011;67937;52.488;20.952;2023-04-09T07:40:09;11.20;;;7.60;;
78614;SDS011;67937;52.488;20.952;2023-04-09T07:42:37;8.50;;;6.70;;
78614;SDS011;67937;52.488;20.952;2023-04-09T07:45:06;12.10;;;8.50;;
78614;SDS011;67937;52.488;20.952;2023-04-09T07:47:34;10.70;;;6.80;;
78614;SDS011;67937;52.488;20.952;2023-04-09T07:50:02;9.50;;;6.80;;
78614;SDS011;67937;52.488;20.952;2023-04-09T07:52:31;10.80;;;7.10;;
78614;SDS011;67937;52.488;20.952;2023-04-09T07:54:59;11.90;;;7.90;;
78614;SDS011;67937;52.488;20.952;2023-04-09T07:57:29;13.30;;;9.40;;
78614;SDS011;67937;52.488;20.952;2023-04-09T08:00:01;9.30;;;6.70;;
78614;SDS011;67937;52.488;20.952;2023-04-09T08:02:33;11.20;;;7.30;;
78614;SDS011;67937;52.488;20.952;2023-04-09T08:05:05;8.60;;;6.80;;
78614;SDS011;67937;52.488;20.952;2023-04-09T08:07:35;11.10;;;8.10;;
78614;SDS011;67937;52.488;20.952;2023-04-09T08:10:05;11.20;;;8.00;;
78614;SDS011;67937;52.488;20.952;2023-04-09T08:12:33;11.30;;;8.10;;
78614;SDS011;67937;52.488;20.952;2023-04-09T08:15:02;8.50;;;5.50;;
78614;SDS011;67937;52.488;20.952;2023-04-09T08:17:30;9.00;;;6.40;;
78614;SDS011;67937;52.488;20.952;2023-04-09T08:19:58;8.50;;;5.80;;
78614;SDS011;67937;52.488;20.952;2023-04-09T08:22:26;9.60;;;7.40;;
78614;SDS011;67937;52.488;20.952;2023-04-09T08:24:54;9.10;;;6.00;;
78614;SDS011;67937;52.488;20.952;2023-04-09T08:27:23;10.50;;;7.50;;
78614;SDS011;67937;52.488;20.952;2023-04-09T08:29:52;10.70;;;7.10;;
78614;SDS011;67937;52.488;20.952;2023-04-09T08:32:20;10.00;;;7.30;;
78614;SDS011;67937;52.488;20.952;2023-04-09T08:34:48;11.60;;;7.70;;
78614;SDS011;67937;52.488;20.952;2023-04-09T08:37:16;9.20;;;7.40;;
78614;SDS011;67937;52.488;20.952;2023-04-09T08:39:44;11.30;;;6.70;;
78614;SDS011;67937;52.488;20.952;2023-04-09T08:42:12;8.40;;;7.10;;
78614;SDS011;67937;52.488;20.952;2023-04-09T08:44:41;10.80;;;7.30;;
78614;SDS011;67937;52.488;20.952;2023-04-09T08:47:10;11.80;;;7.40;;
78614;SDS011;67937;52.488;20.952;2023-04-09T08:49:39;8.60;;;6.10;;
78614;SDS011;67937;52.488;20.952;2023-04-09T08:52:07;9.20;;;6.70;;
78614;SDS011;67937;52.488;20.952;2023-04-09T08:54:35;9.80;;;7.10;;
78614;SDS011;67937;52.488;20.952;2023-04-09T08:57:03;9.30;;;6.50;;
78614;SDS011;67937;52.488;20.952;2023-04-09T08:59:32;8.30;;;6.50;;
78614;SDS011;67937;52.488;20.952;2023-04-09T09:02:05;9.30;;;7.10;;
78614;SDS011;67937;52.488;20.952;2023-04-09T09:04:47;10.20;;;6.40;;
78614;SDS011;67937;52.488;20.952;2023-04-09T09:07:16;9.50;;;6.30;;
78614;SDS011;67937;52.488;20.952;2023-04-09T09:09:51;9.80;;;6.00;;
78614;SDS011;67937;52.488;20.952;2023-04-09T09:12:35;8.10;;;6.10;;
78614;SDS011;67937;52.488;20.952;2023-04-09T09:17:56;8.10;;;5.80;;
78614;SDS011;67937;52.488;20.952;2023-04-09T09:20:26;11.20;;;6.10;;
78614;SDS011;67937;52.488;20.952;2023-04-09T09:22:54;8.20;;;5.10;;
78614;SDS011;67937;52.488;20.952;2023-04-09T09:25:23;8.60;;;6.10;;
78614;SDS011;67937;52.488;20.952;2023-04-09T09:27:51;10.00;;;7.20;;
78614;SDS011;67937;52.488;20.952;2023-04-09T09:30:23;8.00;;;5.90;;
78614;SDS011;67937;52.488;20.952;2023-04-09T09:32:54;8.80;;;6.70;;
78614;SDS011;67937;52.488;20.952;2023-04-09T09:35:48;8.60;;;6.10;;
78614;SDS011;67937;52.488;20.952;2023-04-09T09:38:17;6.90;;;5.30;;
78614;SDS011;67937;52.488;20.952;2023-04-09T09:40:45;8.60;;;5.60;;
78614;SDS011;67937;52.488;20.952;2023-04-09T09:43:14;9.00;;;6.70;;
78614;SDS011;67937;52.488;20.952;2023-04-09T09:45:42;10.90;;;7.30;;
78614;SDS011;67937;52.488;20.952;2023-04-09T09:48:13;9.80;;;7.50;;
78614;SDS011;67937;52.488;20.952;2023-04-09T09:50:42;10.20;;;6.20;;
78614;SDS011;67937;52.488;20.952;2023-04-09T09:53:14;8.30;;;5.30;;
78614;SDS011;67937;52.488;20.952;2023-04-09T09:55:48;9.60;;;7.30;;
78614;SDS011;67937;52.488;20.952;2023-04-09T09:58:21;10.70;;;6.40;;
78614;SDS011;67937;52.488;20.952;2023-04-09T10:00:51;10.70;;;7.00;;
78614;SDS011;67937;52.488;20.952;2023-04-09T10:03:23;10.20;;;6.50;;
78614;SDS011;67937;52.488;20.952;2023-04-09T10:05:53;7.70;;;5.30;;
78614;SDS011;67937;52.488;20.952;2023-04-09T10:08:22;7.90;;;6.10;;
78614;SDS011;67937;52.488;20.952;2023-04-09T10:10:51;9.70;;;6.10;;
78614;SDS011;67937;52.488;20.952;2023-04-09T10:13:32;8.10;;;5.70;;
78614;SDS011;67937;52.488;20.952;2023-04-09T10:16:01;7.60;;;5.70;;
78614;SDS011;67937;52.488;20.952;2023-04-09T10:18:30;8.40;;;6.80;;
78614;SDS011;67937;52.488;20.952;2023-04-09T10:21:08;12.90;;;6.90;;
78614;SDS011;67937;52.488;20.952;2023-04-09T10:23:41;7.30;;;5.90;;
78614;SDS011;67937;52.488;20.952;2023-04-09T10:26:12;8.20;;;5.90;;
78614;SDS011;67937;52.488;20.952;2023-04-09T10:28:40;7.80;;;5.90;;
78614;SDS011;67937;52.488;20.952;2023-04-09T10:31:09;8.70;;;6.00;;
78614;SDS011;67937;52.488;20.952;2023-04-09T10:33:38;7.60;;;5.70;;
78614;SDS011;67937;52.488;20.952;2023-04-09T10:36:10;7.00;;;5.10;;
78614;SDS011;67937;52.488;20.952;2023-04-09T10:38:40;6.30;;;4.40;;
78614;SDS011;67937;52.488;20.952;2023-04-09T10:43:48;6.80;;;4.90;;
78614;SDS011;67937;52.488;20.952;2023-04-09T10:46:26;9.30;;;6.50;;
78614;SDS011;67937;52.488;20.952;2023-04-09T10:49:18;8.10;;;6.80;;
78614;SDS011;67937;52.488;20.952;2023-04-09T10:52:00;8.10;;;5.10;;
78614;SDS011;67937;52.488;20.952;2023-04-09T10:59:34;6.70;;;4.50;;
78614;SDS011;67937;52.488;20.952;2023-04-09T11:02:05;7.00;;;4.60;;
78614;SDS011;67937;52.488;20.952;2023-04-09T11:04:40;5.10;;;3.90;;
78614;SDS011;67937;52.488;20.952;2023-04-09T11:07:21;6.80;;;5.00;;
78614;SDS011;67937;52.488;20.952;2023-04-09T11:09:52;9.40;;;6.60;;
78614;SDS011;67937;52.488;20.952;2023-04-09T11:12:20;8.00;;;3.90;;
78614;SDS011;67937;52.488;20.952;2023-04-09T11:14:48;6.90;;;4.70;;
78614;SDS011;67937;52.488;20.952;2023-04-09T11:17:17;6.30;;;4.40;;
78614;SDS011;67937;52.488;20.952;2023-04-09T11:19:45;7.20;;;5.20;;
78614;SDS011;67937;52.488;20.952;2023-04-09T11:22:13;6.10;;;4.10;;
78614;SDS011;67937;52.488;20.952;2023-04-09T11:24:42;5.10;;;4.20;;
78614;SDS011;67937;52.488;20.952;2023-04-09T11:27:12;10.90;;;5.80;;
78614;SDS011;67937;52.488;20.952;2023-04-09T11:29:40;7.90;;;5.70;;
78614;SDS011;67937;52.488;20.952;2023-04-09T11:32:08;7.60;;;4.90;;
78614;SDS011;67937;52.488;20.952;2023-04-09T11:34:36;6.60;;;5.10;;
78614;SDS011;67937;52.488;20.952;2023-04-09T11:37:04;6.00;;;4.90;;
78614;SDS011;67937;52.488;20.952;2023-04-09T11:39:37;7.60;;;5.40;;
78614;SDS011;67937;52.488;20.952;2023-04-09T11:42:06;9.00;;;6.60;;
78614;SDS011;67937;52.488;20.952;2023-04-09T11:44:34;8.70;;;5.60;;
78614;SDS011;67937;52.488;20.952;2023-04-09T11:47:02;8.60;;;5.90;;
78614;SDS011;67937;52.488;20.952;2023-04-09T11:49:30;6.20;;;4.00;;
78614;SDS011;67937;52.488;20.952;2023-04-09T11:51:58;6.20;;;4.70;;
78614;SDS011;67937;52.488;20.952;2023-04-09T11:57:04;7.90;;;5.30;;
78614;SDS011;67937;52.488;20.952;2023-04-09T11:59:32;7.50;;;5.10;;
78614;SDS011;67937;52.488;20.952;2023-04-09T12:02:00;7.50;;;4.70;;
78614;SDS011;67937;52.488;20.952;2023-04-09T12:04:29;7.00;;;4.80;;
78614;SDS011;67937;52.488;20.952;2023-04-09T12:06:57;9.80;;;4.50;;
78614;SDS011;67937;52.488;20.952;2023-04-09T12:09:25;6.70;;;4.60;;
78614;SDS011;67937;52.488;20.952;2023-04-09T12:11:53;7.10;;;4.70;;
78614;SDS011;67937;52.488;20.952;2023-04-09T12:14:22;5.90;;;3.60;;
78614;SDS011;67937;52.488;20.952;2023-04-09T12:16:51;4.20;;;3.60;;
78614;SDS011;67937;52.488;20.952;2023-04-09T12:19:19;3.70;;;3.40;;
78614;SDS011;67937;52.488;20.952;2023-04-09T12:21:49;6.50;;;4.60;;
78614;SDS011;67937;52.488;20.952;2023-04-09T12:24:20;6.30;;;4.60;;
78614;SDS011;67937;52.488;20.952;2023-04-09T12:26:49;11.00;;;5.40;;
78614;SDS011;67937;52.488;20.952;2023-04-09T12:29:18;4.00;;;3.50;;
78614;SDS011;67937;52.488;20.952;2023-04-09T12:31:47;4.50;;;3.90;;
78614;SDS011;67937;52.488;20.952;2023-04-09T12:34:15;5.10;;;3.70;;
78614;SDS011;67937;52.488;20.952;2023-04-09T12:36:43;5.00;;;3.90;;
78614;SDS011;67937;52.488;20.952;2023-04-09T12:39:11;5.00;;;3.70;;
78614;SDS011;67937;52.488;20.952;2023-04-09T12:41:39;4.20;;;3.20;;
78614;SDS011;67937;52.488;20.952;2023-04-09T12:44:08;4.60;;;3.40;;
78614;SDS011;67937;52.488;20.952;2023-04-09T12:46:36;6.20;;;3.20;;
78614;SDS011;67937;52.488;20.952;2023-04-09T12:49:04;2.90;;;2.60;;
78614;SDS011;67937;52.488;20.952;2023-04-09T12:51:32;6.10;;;3.20;;
78614;SDS011;67937;52.488;20.952;2023-04-09T12:54:00;4.20;;;3.20;;
78614;SDS011;67937;52.488;20.952;2023-04-09T12:56:29;3.70;;;3.20;;
78614;SDS011;67937;52.488;20.952;2023-04-09T12:58:58;3.50;;;2.70;;
78614;SDS011;67937;52.488;20.952;2023-04-09T13:01:26;4.50;;;3.20;;
78614;SDS011;67937;52.488;20.952;2023-04-09T13:03:54;5.40;;;2.90;;
78614;SDS011;67937;52.488;20.952;2023-04-09T13:06:22;3.10;;;2.80;;
78614;SDS011;67937;52.488;20.952;2023-04-09T13:08:50;4.30;;;2.70;;
78614;SDS011;67937;52.488;20.952;2023-04-09T13:11:18;3.60;;;3.00;;
78614;SDS011;67937;52.488;20.952;2023-04-09T13:13:46;5.00;;;3.50;;
78614;SDS011;67937;52.488;20.952;2023-04-09T13:16:14;4.70;;;3.00;;
78614;SDS011;67937;52.488;20.952;2023-04-09T13:18:42;3.80;;;2.80;;
78614;SDS011;67937;52.488;20.952;2023-04-09T13:21:11;3.90;;;3.40;;
78614;SDS011;67937;52.488;20.952;2023-04-09T13:23:43;3.70;;;3.30;;
78614;SDS011;67937;52.488;20.952;2023-04-09T13:26:12;3.50;;;3.20;;
78614;SDS011;67937;52.488;20.952;2023-04-09T13:28:40;3.50;;;2.90;;
78614;SDS011;67937;52.488;20.952;2023-04-09T13:31:08;4.20;;;3.20;;
78614;SDS011;67937;52.488;20.952;2023-04-09T13:33:36;4.40;;;3.20;;
78614;SDS011;67937;52.488;20.952;2023-04-09T13:36:04;5.20;;;3.50;;
78614;SDS011;67937;52.488;20.952;2023-04-09T13:38:32;4.40;;;3.40;;
78614;SDS011;67937;52.488;20.952;2023-04-09T13:41:01;6.30;;;3.60;;
78614;SDS011;67937;52.488;20.952;2023-04-09T13:43:29;5.90;;;3.80;;
78614;SDS011;67937;52.488;20.952;2023-04-09T13:45:57;4.70;;;3.10;;
78614;SDS011;67937;52.488;20.952;2023-04-09T13:48:25;3.80;;;2.70;;
78614;SDS011;67937;52.488;20.952;2023-04-09T13:50:53;3.60;;;3.30;;
78614;SDS011;67937;52.488;20.952;2023-04-09T13:53:21;4.00;;;3.20;;
78614;SDS011;67937;52.488;20.952;2023-04-09T13:55:50;3.60;;;3.30;;
78614;SDS011;67937;52.488;20.952;2023-04-09T13:58:19;4.10;;;2.80;;
78614;SDS011;67937;52.488;20.952;2023-04-09T14:00:48;3.40;;;2.60;;
78614;SDS011;67937;52.488;20.952;2023-04-09T14:03:17;3.70;;;2.80;;
78614;SDS011;67937;52.488;20.952;2023-04-09T14:05:45;4.90;;;3.00;;
78614;SDS011;67937;52.488;20.952;2023-04-09T14:08:14;3.50;;;3.20;;
78614;SDS011;67937;52.488;20.952;2023-04-09T14:10:43;6.10;;;4.00;;
78614;SDS011;67937;52.488;20.952;2023-04-09T14:13:11;3.30;;;3.00;;
78614;SDS011;67937;52.488;20.952;2023-04-09T14:15:39;3.80;;;3.40;;
78614;SDS011;67937;52.488;20.952;2023-04-09T14:18:10;5.30;;;3.90;;
78614;SDS011;67937;52.488;20.952;2023-04-09T14:20:38;3.50;;;3.20;;
78614;SDS011;67937;52.488;20.952;2023-04-09T14:23:07;4.80;;;3.70;;
78614;SDS011;67937;52.488;20.952;2023-04-09T14:25:35;5.90;;;3.20;;
78614;SDS011;67937;52.488;20.952;2023-04-09T14:28:03;4.60;;;3.20;;
78614;SDS011;67937;52.488;20.952;2023-04-09T14:30:32;3.90;;;3.10;;
78614;SDS011;67937;52.488;20.952;2023-04-09T14:33:00;7.60;;;3.50;;
78614;SDS011;67937;52.488;20.952;2023-04-09T14:35:29;4.60;;;3.30;;
78614;SDS011;67937;52.488;20.952;2023-04-09T14:37:57;3.30;;;3.00;;
78614;SDS011;67937;52.488;20.952;2023-04-09T14:40:27;4.60;;;2.80;;
78614;SDS011;67937;52.488;20.952;2023-04-09T14:42:55;3.60;;;2.90;;
78614;SDS011;67937;52.488;20.952;2023-04-09T14:45:23;2.90;;;2.70;;
78614;SDS011;67937;52.488;20.952;2023-04-09T14:47:51;4.00;;;3.10;;
78614;SDS011;67937;52.488;20.952;2023-04-09T14:50:20;3.70;;;3.00;;
78614;SDS011;67937;52.488;20.952;2023-04-09T14:52:48;4.80;;;3.00;;
78614;SDS011;67937;52.488;20.952;2023-04-09T14:55:16;5.70;;;3.50;;
78614;SDS011;67937;52.488;20.952;2023-04-09T14:57:45;3.50;;;3.00;;
78614;SDS011;67937;52.488;20.952;2023-04-09T15:00:13;4.20;;;3.40;;
78614;SDS011;67937;52.488;20.952;2023-04-09T15:02:42;4.50;;;3.20;;